createdAt,value
2018-11-07T00:00:01.367Z,46253.17
2018-11-07T00:02:06.246Z,46259.94
2018-11-07T00:04:10.909Z,46255.10
2018-11-07T00:06:15.720Z,46270.59
2018-11-07T00:08:20.794Z,46237.68
2018-11-07T00:10:25.341Z,46257.04
2018-11-07T00:12:30.189Z,46255.10
2018-11-07T00:14:35.169Z,46253.17
2018-11-07T00:16:39.968Z,46245.43
2018-11-07T00:18:44.766Z,46256.07
2018-11-07T00:20:49.596Z,46233.81
2018-11-07T00:22:54.809Z,46260.91
2018-11-07T00:24:59.654Z,46255.10
2018-11-07T00:27:04.621Z,46229.94
2018-11-07T00:29:09.620Z,46239.62
2018-11-07T00:31:14.367Z,46241.55
2018-11-07T00:35:28.720Z,46230.91
2018-11-07T00:37:33.658Z,46258.97
2018-11-07T00:39:38.969Z,46255.10
2018-11-07T00:41:43.757Z,46243.49
2018-11-07T00:43:48.425Z,46242.52
2018-11-07T00:45:53.293Z,46260.91
2018-11-07T00:47:58.128Z,46258.01
2018-11-07T00:50:02.809Z,46272.52
2018-11-07T00:52:07.724Z,46270.59
2018-11-07T00:54:12.760Z,46289.94
2018-11-07T00:56:17.565Z,46263.81
2018-11-07T00:58:22.320Z,46245.43
2018-11-07T01:00:27.042Z,46266.71
2018-11-07T01:02:31.856Z,46240.59
2018-11-07T01:04:37.117Z,46256.07
2018-11-07T01:06:41.803Z,46270.59
2018-11-07T01:08:47.113Z,46267.68
2018-11-07T01:10:51.957Z,46240.59
2018-11-07T01:12:56.810Z,46275.43
2018-11-07T01:15:01.591Z,46249.30
2018-11-07T01:17:07.579Z,46264.78
2018-11-07T01:19:12.312Z,46257.04
2018-11-07T01:21:17.131Z,46246.39
2018-11-07T01:23:22.825Z,46260.91
2018-11-07T01:25:27.731Z,46259.94
2018-11-07T01:27:32.470Z,46257.04
2018-11-07T01:29:37.280Z,46257.04
2018-11-07T01:31:43.046Z,46258.97
2018-11-07T01:33:47.827Z,46257.04
2018-11-07T01:35:52.549Z,46288.97
2018-11-07T01:37:57.291Z,46253.17
2018-11-07T01:40:02.213Z,46263.81
2018-11-07T01:42:07.765Z,46269.62
2018-11-07T01:44:12.447Z,46258.97
2018-11-07T01:46:17.343Z,46271.55
2018-11-07T01:48:22.892Z,46263.81
2018-11-07T01:50:28.231Z,46245.43
2018-11-07T01:52:33.424Z,46255.10
2018-11-07T01:54:38.379Z,46251.23
2018-11-07T01:56:43.293Z,46269.62
2018-11-07T01:58:48.067Z,46269.62
2018-11-07T02:00:52.866Z,46258.01
2018-11-07T02:02:57.660Z,46262.84
2018-11-07T02:05:02.352Z,46242.52
2018-11-07T02:07:07.706Z,46258.01
2018-11-07T02:09:12.476Z,46250.26
2018-11-07T02:11:17.266Z,46257.04
2018-11-07T02:13:21.974Z,46234.78
2018-11-07T02:15:26.681Z,46251.23
2018-11-07T02:17:31.346Z,46260.91
2018-11-07T02:19:36.400Z,46258.97
2018-11-07T02:21:41.035Z,46248.33
2018-11-07T02:23:45.826Z,46228.97
2018-11-07T02:25:50.526Z,46228.01
2018-11-07T02:27:55.335Z,46248.33
2018-11-07T02:30:00.143Z,46259.94
2018-11-07T02:32:05.052Z,46241.55
2018-11-07T02:34:09.746Z,46250.26
2018-11-07T02:36:14.575Z,46242.52
2018-11-07T02:38:19.384Z,46228.97
2018-11-07T02:40:24.103Z,46233.81
2018-11-07T02:42:28.837Z,46252.20
2018-11-07T02:44:33.534Z,46225.10
2018-11-07T02:46:38.226Z,46245.43
2018-11-07T02:48:42.904Z,46235.75
2018-11-07T02:50:47.621Z,46229.94
2018-11-07T02:52:52.370Z,46238.65
2018-11-07T02:54:57.104Z,46244.46
2018-11-07T02:57:01.827Z,46242.52
2018-11-07T02:59:06.654Z,46227.04
2018-11-07T03:01:11.399Z,46228.01
2018-11-07T03:03:16.018Z,46235.75
2018-11-07T03:05:20.821Z,46226.07
2018-11-07T03:07:26.674Z,46241.55
2018-11-07T03:09:32.253Z,46227.04
2018-11-07T03:11:37.165Z,46222.20
2018-11-07T03:13:41.941Z,46241.55
2018-11-07T03:15:46.663Z,46228.97
2018-11-07T03:17:51.423Z,46238.65
2018-11-07T03:19:56.093Z,46224.13
2018-11-07T03:22:00.785Z,46225.10
2018-11-07T03:24:05.821Z,46236.71
2018-11-07T03:26:10.506Z,46230.91
2018-11-07T03:28:15.250Z,46222.20
2018-11-07T03:30:20.030Z,46226.07
2018-11-07T03:32:24.706Z,46222.20
2018-11-07T03:34:29.499Z,46248.33
2018-11-07T03:36:34.192Z,46230.91
2018-11-07T03:38:39.036Z,46242.52
2018-11-07T03:40:43.782Z,46229.94
2018-11-07T03:42:48.456Z,46207.68
2018-11-07T03:44:53.082Z,46239.62
2018-11-07T03:46:57.753Z,46246.39
2018-11-07T03:49:02.431Z,46225.10
2018-11-07T03:51:07.099Z,46243.49
2018-11-07T03:53:11.977Z,46220.26
2018-11-07T03:55:16.586Z,46242.52
2018-11-07T03:57:21.328Z,46229.94
2018-11-07T03:59:26.134Z,46226.07
2018-11-07T04:01:30.817Z,46261.87
2018-11-07T04:03:35.627Z,46231.87
2018-11-07T04:05:40.389Z,46233.81
2018-11-07T04:07:45.072Z,46236.71
2018-11-07T04:09:49.940Z,46232.84
2018-11-07T04:11:54.707Z,46210.59
2018-11-07T04:13:59.406Z,46238.65
2018-11-07T04:16:04.095Z,46244.46
2018-11-07T04:18:08.893Z,46234.78
2018-11-07T04:20:13.524Z,46229.94
2018-11-07T04:22:18.295Z,46229.94
2018-11-07T04:24:23.081Z,46234.78
2018-11-07T04:26:27.777Z,46246.39
2018-11-07T04:28:32.700Z,46225.10
2018-11-07T04:30:37.567Z,46237.68
2018-11-07T04:32:43.035Z,46227.04
2018-11-07T04:34:47.701Z,46221.23
2018-11-07T04:36:52.357Z,46217.36
2018-11-07T04:38:57.233Z,46229.94
2018-11-07T04:41:02.005Z,46242.52
2018-11-07T04:43:07.381Z,46235.75
2018-11-07T04:45:12.022Z,46230.91
2018-11-07T04:47:16.770Z,46241.55
2018-11-07T04:49:21.506Z,46242.52
2018-11-07T04:51:26.264Z,46229.94
2018-11-07T04:53:30.972Z,46228.01
2018-11-07T04:55:35.787Z,46215.43
2018-11-07T04:57:40.643Z,46228.01
2018-11-07T04:59:45.347Z,46228.01
2018-11-07T05:01:50.059Z,46235.75
2018-11-07T05:03:54.749Z,46231.87
2018-11-07T05:05:59.672Z,46048.98
2018-11-07T05:08:04.623Z,46233.81
2018-11-07T05:10:10.719Z,46231.87
2018-11-07T05:12:15.422Z,46214.46
2018-11-07T05:14:20.175Z,46233.81
2018-11-07T05:16:25.136Z,46208.65
2018-11-07T05:18:30.087Z,46232.84
2018-11-07T05:20:34.807Z,46232.84
2018-11-07T05:22:39.534Z,46227.04
2018-11-07T05:24:44.513Z,46258.01
2018-11-07T05:26:49.347Z,46222.20
2018-11-07T05:28:54.135Z,46223.17
2018-11-07T05:30:59.127Z,46236.71
2018-11-07T05:33:03.951Z,46212.52
2018-11-07T05:35:09.209Z,46208.65
2018-11-07T05:37:14.109Z,46232.84
2018-11-07T05:39:18.897Z,46218.33
2018-11-07T05:41:23.788Z,46226.07
2018-11-07T05:43:28.597Z,46218.33
2018-11-07T05:45:33.410Z,46242.52
2018-11-07T05:47:38.226Z,46223.17
2018-11-07T05:49:42.953Z,46228.97
2018-11-07T05:51:47.764Z,46205.75
2018-11-07T05:53:52.493Z,46224.13
2018-11-07T05:55:57.302Z,46207.68
2018-11-07T05:58:02.113Z,46216.39
2018-11-07T06:00:09.270Z,46198.97
2018-11-07T06:02:14.042Z,46209.62
2018-11-07T06:04:18.827Z,46218.33
2018-11-07T06:06:23.676Z,46229.94
2018-11-07T06:08:28.361Z,46208.65
2018-11-07T06:10:33.300Z,46227.04
2018-11-07T06:12:38.461Z,46216.39
2018-11-07T06:14:45.070Z,46248.33
2018-11-07T06:16:50.009Z,46210.59
2018-11-07T06:18:54.761Z,46207.68
2018-11-07T06:20:59.615Z,46202.84
2018-11-07T06:23:04.463Z,46228.01
2018-11-07T06:25:09.280Z,46209.62
2018-11-07T06:27:14.015Z,46222.20
2018-11-07T06:29:18.804Z,46221.23
2018-11-07T06:31:23.550Z,46210.59
2018-11-07T06:33:28.461Z,46212.52
2018-11-07T06:35:33.273Z,46212.52
2018-11-07T06:37:38.060Z,46200.91
2018-11-07T06:39:42.899Z,46224.13
2018-11-07T06:41:47.683Z,46204.78
2018-11-07T06:43:52.463Z,46220.26
2018-11-07T06:45:57.198Z,46204.78
2018-11-07T06:48:02.043Z,46210.59
2018-11-07T06:50:11.863Z,46228.97
2018-11-07T06:52:16.571Z,46211.55
2018-11-07T06:54:21.329Z,46212.52
2018-11-07T06:56:26.342Z,46211.55
2018-11-07T06:58:31.114Z,46209.62
2018-11-07T07:00:36.442Z,46201.88
2018-11-07T07:02:41.133Z,46208.65
2018-11-07T07:04:45.882Z,46247.36
2018-11-07T07:06:50.589Z,46219.30
2018-11-07T07:08:55.363Z,46217.36
2018-11-07T07:11:00.090Z,46228.01
2018-11-07T07:13:05.084Z,46235.75
2018-11-07T07:15:12.865Z,46210.59
2018-11-07T07:17:17.659Z,46215.43
2018-11-07T07:19:22.322Z,46220.26
2018-11-07T07:21:27.195Z,46226.07
2018-11-07T07:23:31.882Z,46219.30
2018-11-07T07:25:36.658Z,46215.43
2018-11-07T07:27:42.954Z,46220.26
2018-11-07T07:29:47.624Z,46220.26
2018-11-07T07:31:52.457Z,46240.59
2018-11-07T07:33:57.194Z,46233.81
2018-11-07T07:36:01.858Z,46240.59
2018-11-07T07:38:07.108Z,46239.62
2018-11-07T07:40:13.580Z,46260.91
2018-11-07T07:42:18.299Z,46215.43
2018-11-07T07:44:23.062Z,46226.07
2018-11-07T07:46:28.006Z,46218.33
2018-11-07T07:48:32.786Z,46215.43
2018-11-07T07:50:37.547Z,46215.43
2018-11-07T07:52:43.331Z,46233.81
2018-11-07T07:54:48.078Z,46220.26
2018-11-07T07:56:52.895Z,46228.97
2018-11-07T07:58:57.694Z,46232.84
2018-11-07T08:01:02.369Z,46250.26
2018-11-07T08:03:07.237Z,46239.62
2018-11-07T08:05:12.042Z,46222.20
2018-11-07T08:07:16.784Z,46236.71
2018-11-07T08:09:21.508Z,46227.04
2018-11-07T08:11:26.189Z,46229.94
2018-11-07T08:13:31.048Z,46241.55
2018-11-07T08:15:36.003Z,46232.84
2018-11-07T08:17:41.768Z,46234.78
2018-11-07T08:19:46.417Z,46244.46
2018-11-07T08:21:51.258Z,46252.20
2018-11-07T08:23:56.262Z,46230.91
2018-11-07T08:26:01.396Z,46246.39
2018-11-07T08:28:06.468Z,46239.62
2018-11-07T08:30:18.585Z,46250.26
2018-11-07T08:32:23.165Z,46236.71
2018-11-07T08:34:27.927Z,46254.14
2018-11-07T08:36:32.710Z,46276.39
2018-11-07T08:38:37.594Z,46228.01
2018-11-07T08:40:42.394Z,46254.14
2018-11-07T08:42:47.406Z,46242.52
2018-11-07T08:44:52.178Z,46274.46
2018-11-07T08:46:56.902Z,46229.94
2018-11-07T08:49:01.578Z,46247.36
2018-11-07T08:51:06.597Z,46240.59
2018-11-07T08:53:11.630Z,46251.23
2018-11-07T08:55:17.954Z,46235.75
2018-11-07T08:57:22.778Z,46269.62
2018-11-07T08:59:27.484Z,46245.43
2018-11-07T09:01:32.393Z,46252.20
2018-11-07T09:03:37.228Z,46241.55
2018-11-07T09:05:42.047Z,46264.78
2018-11-07T09:07:47.340Z,46250.26
2018-11-07T09:09:52.471Z,46265.75
2018-11-07T09:11:57.184Z,46253.17
2018-11-07T09:14:01.921Z,46275.43
2018-11-07T09:16:06.899Z,46260.91
2018-11-07T09:18:11.811Z,46263.81
2018-11-07T09:20:23.810Z,46248.33
2018-11-07T09:22:28.633Z,46258.01
2018-11-07T09:24:33.444Z,46277.36
2018-11-07T09:26:38.780Z,46241.55
2018-11-07T09:28:43.475Z,46282.20
2018-11-07T09:30:48.134Z,46270.59
2018-11-07T09:32:52.953Z,46279.30
2018-11-07T09:34:57.988Z,46278.33
2018-11-07T09:37:02.958Z,46277.36
2018-11-07T09:39:10.027Z,46280.27
2018-11-07T09:41:14.859Z,46288.01
2018-11-07T09:43:19.531Z,46285.10
2018-11-07T09:45:25.621Z,46287.04
2018-11-07T09:47:30.461Z,46281.23
2018-11-07T09:49:35.115Z,46277.36
2018-11-07T09:51:39.794Z,46275.43
2018-11-07T09:53:44.578Z,46262.84
2018-11-07T09:55:49.871Z,46288.97
2018-11-07T09:57:54.880Z,46277.36
2018-11-07T09:59:59.992Z,46280.27
2018-11-07T10:02:04.939Z,46295.75
2018-11-07T10:04:09.624Z,46306.39
2018-11-07T10:06:14.343Z,46306.39
2018-11-07T10:08:19.201Z,46284.14
2018-11-07T10:10:23.963Z,46293.81
2018-11-07T10:12:29.474Z,46305.43
2018-11-07T10:14:34.250Z,46299.62
2018-11-07T10:16:38.948Z,46291.88
2018-11-07T10:18:43.710Z,46285.10
2018-11-07T10:20:48.596Z,46300.59
2018-11-07T10:22:53.372Z,46310.27
2018-11-07T10:24:58.182Z,46325.75
2018-11-07T10:27:03.090Z,46297.68
2018-11-07T10:29:07.983Z,46288.01
2018-11-07T10:31:12.483Z,46302.52
2018-11-07T10:33:17.279Z,46308.33
2018-11-07T10:35:21.974Z,46291.88
2018-11-07T10:37:32.367Z,46311.23
2018-11-07T10:39:31.571Z,46303.49
2018-11-07T10:41:36.455Z,46308.33
2018-11-07T10:43:41.278Z,46296.72
2018-11-07T10:45:46.146Z,46314.14
2018-11-07T10:47:51.450Z,46322.85
2018-11-07T10:49:56.192Z,46327.68
2018-11-07T10:52:00.937Z,46303.49
2018-11-07T10:54:05.767Z,46296.72
2018-11-07T10:56:10.518Z,46287.04
2018-11-07T10:58:15.278Z,46304.46
2018-11-07T11:00:25.094Z,46313.17
2018-11-07T11:02:34.924Z,46307.36
2018-11-07T11:04:39.657Z,46310.27
2018-11-07T11:06:44.367Z,46314.14
2018-11-07T11:08:49.171Z,46332.52
2018-11-07T11:10:54.098Z,46320.91
2018-11-07T11:12:58.832Z,46309.30
2018-11-07T11:15:03.700Z,46317.04
2018-11-07T11:17:08.673Z,46301.55
2018-11-07T11:19:13.421Z,46313.17
2018-11-07T11:21:18.179Z,46333.49
2018-11-07T11:23:23.071Z,46320.91
2018-11-07T11:25:28.025Z,46310.27
2018-11-07T11:27:33.212Z,46308.33
2018-11-07T11:29:38.488Z,46307.36
2018-11-07T11:31:43.332Z,46321.88
2018-11-07T11:33:48.417Z,46317.04
2018-11-07T11:35:53.397Z,46328.65
2018-11-07T11:37:58.328Z,46324.78
2018-11-07T11:40:03.260Z,46316.07
2018-11-07T11:42:08.195Z,46324.78
2018-11-07T11:44:13.035Z,46329.62
2018-11-07T11:46:17.881Z,46334.46
2018-11-07T11:48:22.760Z,46323.81
2018-11-07T11:50:27.647Z,46332.52
2018-11-07T11:52:32.434Z,46308.33
2018-11-07T11:54:37.293Z,46335.43
2018-11-07T11:56:42.185Z,46318.01
2018-11-07T11:58:47.090Z,46345.11
2018-11-07T12:00:51.881Z,46333.49
2018-11-07T12:02:56.757Z,46319.94
2018-11-07T12:05:01.545Z,46347.04
2018-11-07T12:07:06.483Z,46342.20
2018-11-07T12:09:11.726Z,46326.72
2018-11-07T12:11:16.481Z,46318.01
2018-11-07T12:13:21.286Z,46347.04
2018-11-07T12:15:27.393Z,46359.62
2018-11-07T12:17:32.333Z,46338.33
2018-11-07T12:19:37.065Z,46340.27
2018-11-07T12:21:41.985Z,46333.49
2018-11-07T12:23:46.826Z,46335.43
2018-11-07T12:25:51.713Z,46326.72
2018-11-07T12:27:56.751Z,46335.43
2018-11-07T12:30:01.610Z,46333.49
2018-11-07T12:32:06.476Z,46335.43
2018-11-07T12:34:11.306Z,46332.52
2018-11-07T12:36:16.358Z,46332.52
2018-11-07T12:38:21.316Z,46322.85
2018-11-07T12:40:25.993Z,46341.23
2018-11-07T12:42:30.822Z,46353.82
2018-11-07T12:44:35.639Z,46335.43
2018-11-07T12:46:40.391Z,46336.39
2018-11-07T12:48:45.447Z,46343.17
2018-11-07T12:50:50.534Z,46333.49
2018-11-07T12:52:55.306Z,46323.81
2018-11-07T12:55:00.090Z,46351.88
2018-11-07T12:57:05.022Z,46336.39
2018-11-07T12:59:09.775Z,46344.14
2018-11-07T13:01:14.575Z,46335.43
2018-11-07T13:03:19.396Z,46336.39
2018-11-07T13:05:25.194Z,46335.43
2018-11-07T13:07:29.971Z,46334.46
2018-11-07T13:09:35.031Z,46352.85
2018-11-07T13:11:40.796Z,46334.46
2018-11-07T13:13:45.525Z,46347.04
2018-11-07T13:15:50.402Z,46341.23
2018-11-07T13:17:55.203Z,46344.14
2018-11-07T13:19:59.923Z,46340.27
2018-11-07T13:22:05.057Z,46348.01
2018-11-07T13:24:09.975Z,46344.14
2018-11-07T13:26:14.808Z,46354.79
2018-11-07T13:28:19.896Z,46348.98
2018-11-07T13:30:24.774Z,46342.20
2018-11-07T13:32:29.578Z,46319.94
2018-11-07T13:34:34.538Z,46348.01
2018-11-07T13:36:39.726Z,46356.72
2018-11-07T13:38:45.122Z,46322.85
2018-11-07T13:40:49.602Z,46337.36
2018-11-07T13:42:54.311Z,46341.23
2018-11-07T13:44:59.059Z,46348.01
2018-11-07T13:47:03.815Z,46334.46
2018-11-07T13:49:08.901Z,46339.30
2018-11-07T13:51:13.674Z,46330.59
2018-11-07T13:53:18.639Z,46344.14
2018-11-07T13:55:23.425Z,46345.11
2018-11-07T13:57:28.196Z,46326.72
2018-11-07T13:59:33.060Z,46312.20
2018-11-07T14:01:37.870Z,46321.88
2018-11-07T14:03:42.532Z,46342.20
2018-11-07T14:05:47.658Z,46328.65
2018-11-07T14:07:53.227Z,46320.91
2018-11-07T14:09:58.154Z,46337.36
2018-11-07T14:12:03.055Z,46354.79
2018-11-07T14:14:08.245Z,46349.94
2018-11-07T14:16:13.104Z,46334.46
2018-11-07T14:18:17.969Z,46313.17
2018-11-07T14:20:22.924Z,46344.14
2018-11-07T14:22:27.682Z,46321.88
2018-11-07T14:24:32.464Z,46341.23
2018-11-07T14:26:37.399Z,46338.33
2018-11-07T14:28:42.423Z,46337.36
2018-11-07T14:30:47.405Z,46319.94
2018-11-07T14:32:58.705Z,46333.49
2018-11-07T14:35:03.388Z,46312.20
2018-11-07T14:37:08.216Z,46328.65
2018-11-07T14:39:13.004Z,46324.78
2018-11-07T14:41:17.780Z,46330.59
2018-11-07T14:43:28.997Z,46332.52
2018-11-07T14:45:34.276Z,46339.30
2018-11-07T14:47:39.757Z,46332.52
2018-11-07T14:49:45.542Z,46323.81
2018-11-07T14:51:50.595Z,46330.59
2018-11-07T14:53:56.181Z,46323.81
2018-11-07T14:56:01.146Z,46346.07
2018-11-07T14:58:06.178Z,46320.91
2018-11-07T15:00:13.627Z,46323.81
2018-11-07T15:02:18.411Z,46308.33
2018-11-07T15:04:23.644Z,46321.88
2018-11-07T15:06:29.165Z,46348.01
2018-11-07T15:08:34.232Z,46324.78
2018-11-07T15:10:38.976Z,46328.65
2018-11-07T15:12:44.233Z,46331.55
2018-11-07T15:14:48.985Z,46318.97
2018-11-07T15:16:54.731Z,46314.14
2018-11-07T15:18:59.505Z,46315.11
2018-11-07T15:21:04.269Z,46306.39
2018-11-07T15:23:09.146Z,46324.78
2018-11-07T15:25:14.993Z,46318.97
2018-11-07T15:27:19.962Z,46324.78
2018-11-07T15:29:25.168Z,46328.65
2018-11-07T15:31:30.024Z,46326.72
2018-11-07T15:33:35.116Z,46306.39
2018-11-07T15:35:39.861Z,46321.88
2018-11-07T15:37:44.670Z,46316.07
2018-11-07T15:39:49.384Z,46298.65
2018-11-07T15:41:54.279Z,46311.23
2018-11-07T15:43:59.030Z,46305.43
2018-11-07T15:46:03.966Z,46305.43
2018-11-07T15:48:08.645Z,46302.52
2018-11-07T15:50:18.612Z,46291.88
2018-11-07T15:52:23.539Z,46295.75
2018-11-07T15:54:28.393Z,46300.59
2018-11-07T15:56:33.371Z,46295.75
2018-11-07T15:58:38.405Z,46284.14
2018-11-07T16:00:43.195Z,46294.78
2018-11-07T16:02:47.952Z,46284.14
2018-11-07T16:04:54.870Z,46300.59
2018-11-07T16:06:59.614Z,46290.91
2018-11-07T16:09:04.914Z,46289.94
2018-11-07T16:11:09.801Z,46303.49
2018-11-07T16:13:15.107Z,46286.07
2018-11-07T16:15:19.996Z,46286.07
2018-11-07T16:17:24.996Z,46291.88
2018-11-07T16:19:30.125Z,46317.04
2018-11-07T16:21:35.192Z,46289.94
2018-11-07T16:23:40.001Z,46281.23
2018-11-07T16:25:44.833Z,46288.01
2018-11-07T16:27:49.623Z,46286.07
2018-11-07T16:29:54.752Z,46294.78
2018-11-07T16:31:59.498Z,46290.91
2018-11-07T16:34:04.380Z,46281.23
2018-11-07T16:36:09.417Z,46289.94
2018-11-07T16:38:14.480Z,46295.75
2018-11-07T16:40:20.355Z,46295.75
2018-11-07T16:42:25.272Z,46288.97
2018-11-07T16:44:30.223Z,46304.46
2018-11-07T16:46:35.156Z,46285.10
2018-11-07T16:48:40.173Z,46280.27
2018-11-07T16:50:45.182Z,46284.14
2018-11-07T16:52:50.093Z,46296.72
2018-11-07T16:54:55.064Z,46281.23
2018-11-07T16:57:00.136Z,46272.52
2018-11-07T16:59:05.436Z,46305.43
2018-11-07T17:01:10.831Z,46312.20
2018-11-07T17:03:15.787Z,46289.94
2018-11-07T17:05:22.263Z,46281.23
2018-11-07T17:07:27.176Z,46303.49
2018-11-07T17:09:32.207Z,46288.01
2018-11-07T17:11:37.297Z,46298.65
2018-11-07T17:13:42.194Z,46271.55
2018-11-07T17:15:47.479Z,46288.97
2018-11-07T17:17:52.324Z,46297.68
2018-11-07T17:19:57.241Z,46294.78
2018-11-07T17:22:02.013Z,46288.97
2018-11-07T17:24:07.123Z,46291.88
2018-11-07T17:26:11.702Z,46281.23
2018-11-07T17:28:16.474Z,46282.20
2018-11-07T17:30:21.325Z,46287.04
2018-11-07T17:32:26.061Z,46273.49
2018-11-07T17:34:30.793Z,46277.36
2018-11-07T17:36:35.659Z,46308.33
2018-11-07T17:38:40.693Z,46274.46
2018-11-07T17:40:45.399Z,46275.43
2018-11-07T17:42:51.220Z,46291.88
2018-11-07T17:44:56.780Z,46291.88
2018-11-07T17:47:02.298Z,46286.07
2018-11-07T17:49:07.070Z,46294.78
2018-11-07T17:51:11.969Z,46279.30
2018-11-07T17:53:16.841Z,46298.65
2018-11-07T17:55:22.348Z,46275.43
2018-11-07T17:57:27.163Z,46277.36
2018-11-07T17:59:32.942Z,46303.49
2018-11-07T18:01:37.797Z,46270.59
2018-11-07T18:03:43.020Z,46284.14
2018-11-07T18:05:47.829Z,46286.07
2018-11-07T18:07:52.777Z,46293.81
2018-11-07T18:09:57.742Z,46267.68
2018-11-07T18:12:08.223Z,46301.55
2018-11-07T18:14:13.330Z,46278.33
2018-11-07T18:16:18.703Z,46126.39
2018-11-07T18:18:23.950Z,46295.75
2018-11-07T18:20:28.907Z,46301.55
2018-11-07T18:22:34.416Z,46273.49
2018-11-07T18:24:39.335Z,46268.65
2018-11-07T18:26:44.270Z,46282.20
2018-11-07T18:28:49.978Z,46258.01
2018-11-07T18:30:55.932Z,46310.27
2018-11-07T18:33:00.773Z,46288.01
2018-11-07T18:35:12.683Z,46274.46
2018-11-07T18:37:17.998Z,46294.78
2018-11-07T18:39:24.550Z,46288.01
2018-11-07T18:41:29.825Z,46278.33
2018-11-07T18:43:34.945Z,46281.23
2018-11-07T18:47:57.058Z,46271.55
2018-11-07T18:50:02.371Z,46287.04
2018-11-07T18:52:07.306Z,46291.88
2018-11-07T18:54:12.393Z,46283.17
2018-11-07T18:56:17.391Z,46269.62
2018-11-07T18:58:22.940Z,46285.10
2018-11-07T19:00:27.886Z,46288.97
2018-11-07T19:02:33.003Z,46289.94
2018-11-07T19:04:38.141Z,46294.78
2018-11-07T19:06:43.567Z,46289.94
2018-11-07T19:08:48.433Z,46290.91
2018-11-07T19:10:53.329Z,46292.84
2018-11-07T19:12:58.385Z,46270.59
2018-11-07T19:15:03.338Z,46265.75
2018-11-07T19:17:09.678Z,46304.46
2018-11-07T19:19:17.583Z,46267.68
2018-11-07T19:21:24.047Z,46256.07
2018-11-07T19:23:30.336Z,46272.52
2018-11-07T19:25:35.552Z,46277.36
2018-11-07T19:27:41.707Z,46281.23
2018-11-07T19:29:48.419Z,46277.36
2018-11-07T19:31:56.303Z,46286.07
2018-11-07T19:34:02.364Z,46277.36
2018-11-07T19:36:12.229Z,46260.91
2018-11-07T19:40:42.141Z,46274.46
2018-11-07T19:42:50.005Z,46263.81
2018-11-07T19:44:56.892Z,46272.52
2018-11-07T19:49:24.627Z,46281.23
2018-11-07T19:51:36.942Z,46274.46
2018-11-07T19:53:47.292Z,46287.04
2018-11-07T19:55:58.361Z,46280.27
2018-11-07T19:58:19.512Z,46300.59
2018-11-07T20:00:33.373Z,46296.72
2018-11-07T20:02:41.363Z,46273.49
2018-11-07T20:04:52.505Z,46276.39
2018-11-07T20:07:02.301Z,46300.59
2018-11-07T20:09:13.565Z,46275.43
2018-11-07T20:11:21.026Z,46286.07
2018-11-07T20:13:27.823Z,46299.62
2018-11-07T20:15:38.620Z,46263.81
2018-11-07T20:17:47.139Z,46294.78
2018-11-07T20:19:54.605Z,46283.17
2018-11-07T20:22:03.391Z,46277.36
2018-11-07T20:24:11.027Z,46272.52
2018-11-07T20:26:16.980Z,46272.52
2018-11-07T20:28:23.401Z,46274.46
2018-11-07T20:30:29.986Z,46276.39
2018-11-07T20:32:35.977Z,46271.55
2018-11-07T20:34:42.561Z,46278.33
2018-11-07T20:36:47.750Z,46263.81
2018-11-07T20:38:59.096Z,46267.68
2018-11-07T20:41:08.589Z,46275.43
2018-11-07T20:43:14.672Z,46270.59
2018-11-07T20:45:21.604Z,46266.71
2018-11-07T20:47:30.161Z,46275.43
2018-11-07T20:49:36.924Z,46260.91
2018-11-07T20:51:44.154Z,46264.78
2018-11-07T20:53:54.238Z,46277.36
2018-11-07T20:56:03.592Z,46260.91
2018-11-07T20:58:13.317Z,46267.68
2018-11-07T21:00:26.992Z,46262.84
2018-11-07T21:02:33.738Z,46284.14
2018-11-07T21:04:41.312Z,46266.71
2018-11-07T21:06:49.409Z,46284.14
2018-11-07T21:08:56.909Z,46265.75
2018-11-07T21:11:09.280Z,46258.01
2018-11-07T21:13:17.940Z,46280.27
2018-11-07T21:15:26.579Z,46256.07
2018-11-07T21:17:35.113Z,46269.62
2018-11-07T21:19:41.422Z,46256.07
2018-11-07T21:21:50.368Z,46276.39
2018-11-07T21:23:59.046Z,46268.65
2018-11-07T21:26:05.268Z,46262.84
2018-11-07T21:28:10.655Z,46255.10
2018-11-07T21:30:16.486Z,46276.39
2018-11-07T21:32:22.700Z,46273.49
2018-11-07T21:34:28.275Z,46245.43
2018-11-07T21:36:39.154Z,46266.71
2018-11-07T21:38:49.065Z,46251.23
2018-11-07T21:40:54.675Z,46275.43
2018-11-07T21:43:00.240Z,46252.20
2018-11-07T21:45:05.993Z,46274.46
2018-11-07T21:47:11.959Z,46269.62
2018-11-07T21:49:18.333Z,46267.68
2018-11-07T21:51:27.648Z,46290.91
2018-11-07T21:53:32.866Z,46256.07
2018-11-07T21:55:37.766Z,46247.36
2018-11-07T21:57:42.662Z,46280.27
2018-11-07T21:59:47.453Z,46271.55
2018-11-07T22:01:52.224Z,46266.71
2018-11-07T22:03:57.053Z,46258.01
2018-11-07T22:06:01.907Z,46267.68
2018-11-07T22:08:06.966Z,46253.17
2018-11-07T22:10:12.795Z,46261.87
2018-11-07T22:12:17.584Z,46263.81
2018-11-07T22:14:22.528Z,46271.55
2018-11-07T22:16:27.382Z,46249.30
2018-11-07T22:18:32.161Z,46258.01
2018-11-07T22:20:36.982Z,46251.23
2018-11-07T22:22:41.961Z,46255.10
2018-11-07T22:24:46.718Z,46263.81
2018-11-07T22:26:51.721Z,46257.04
2018-11-07T22:28:56.483Z,46258.97
2018-11-07T22:31:01.436Z,46262.84
2018-11-07T22:33:06.308Z,46240.59
2018-11-07T22:35:14.484Z,46258.01
2018-11-07T22:37:19.497Z,46251.23
2018-11-07T22:39:24.282Z,46247.36
2018-11-07T22:41:29.121Z,46275.43
2018-11-07T22:43:34.211Z,46271.55
2018-11-07T22:45:39.330Z,46254.14
2018-11-07T22:47:44.186Z,46272.52
2018-11-07T22:49:49.118Z,46255.10
2018-11-07T22:51:53.839Z,46254.14
2018-11-07T22:53:58.790Z,46258.01
2018-11-07T22:56:03.708Z,46255.10
2018-11-07T22:58:08.495Z,46238.65
2018-11-07T23:00:22.043Z,46258.01
2018-11-07T23:02:27.487Z,46251.23
2018-11-07T23:04:32.434Z,46267.68
2018-11-07T23:06:38.162Z,46260.91
2018-11-07T23:08:43.117Z,46249.30
2018-11-07T23:10:47.858Z,46259.94
2018-11-07T23:12:52.636Z,46259.94
2018-11-07T23:14:57.545Z,46257.04
2018-11-07T23:17:02.325Z,46246.39
2018-11-07T23:19:08.342Z,46262.84
2018-11-07T23:21:13.533Z,46251.23
2018-11-07T23:23:20.145Z,46250.26
2018-11-07T23:25:25.209Z,46259.94
2018-11-07T23:27:32.832Z,46246.39
2018-11-07T23:29:38.117Z,46235.75
2018-11-07T23:31:43.760Z,46242.52
2018-11-07T23:33:48.829Z,46239.62
2018-11-07T23:35:54.422Z,46264.78
2018-11-07T23:37:59.382Z,46224.13
2018-11-07T23:40:04.370Z,46236.71
2018-11-07T23:42:09.242Z,46258.97
2018-11-07T23:44:14.189Z,46224.13
2018-11-07T23:46:19.232Z,46267.68
2018-11-07T23:48:24.161Z,46257.04
2018-11-07T23:50:29.076Z,46265.75
2018-11-07T23:52:38.949Z,46251.23
2018-11-07T23:54:43.915Z,46263.81
2018-11-07T23:56:49.084Z,46260.91
2018-11-07T23:58:53.993Z,46256.07
